sensor_id;sensor_type;location;lat;lon;timestamp;pressure;altitude;pressure_sealevel;temperature;humidity
163;BME280;3946;48.958;8.284;2023-05-15T00:02:10;100090.50;;;10.96;100.00
163;BME280;3946;48.958;8.284;2023-05-15T00:04:56;100098.91;;;10.99;100.00
163;BME280;3946;48.958;8.284;2023-05-15T00:07:42;100098.97;;;11.10;100.00
163;BME280;3946;48.958;8.284;2023-05-15T00:10:27;100100.22;;;11.17;100.00
163;BME280;3946;48.958;8.284;2023-05-15T00:13:12;100095.34;;;11.13;100.00
163;BME280;3946;48.958;8.284;2023-05-15T00:15:57;100099.81;;;11.11;100.00
163;BME280;3946;48.958;8.284;2023-05-15T00:18:42;100108.31;;;11.13;100.00
163;BME280;3946;48.958;8.284;2023-05-15T00:21:27;100110.81;;;11.14;100.00
163;BME280;3946;48.958;8.284;2023-05-15T00:24:14;100109.31;;;11.23;100.00
163;BME280;3946;48.958;8.284;2023-05-15T00:26:58;100113.56;;;11.24;100.00
163;BME280;3946;48.958;8.284;2023-05-15T00:29:44;100112.16;;;11.20;100.00
163;BME280;3946;48.958;8.284;2023-05-15T00:32:30;100110.16;;;11.23;100.00
163;BME280;3946;48.958;8.284;2023-05-15T00:35:14;100113.78;;;11.34;100.00
163;BME280;3946;48.958;8.284;2023-05-15T00:38:00;100118.44;;;11.29;100.00
163;BME280;3946;48.958;8.284;2023-05-15T00:40:46;100111.53;;;11.16;100.00
163;BME280;3946;48.958;8.284;2023-05-15T00:43:32;100107.69;;;11.09;100.00
163;BME280;3946;48.958;8.284;2023-05-15T00:46:18;100107.91;;;11.06;100.00
163;BME280;3946;48.958;8.284;2023-05-15T00:49:04;100102.81;;;11.05;100.00
163;BME280;3946;48.958;8.284;2023-05-15T00:51:50;100104.28;;;11.09;100.00
163;BME280;3946;48.958;8.284;2023-05-15T00:54:35;100111.22;;;11.08;100.00
163;BME280;3946;48.958;8.284;2023-05-15T00:57:22;100110.69;;;11.16;100.00
163;BME280;3946;48.958;8.284;2023-05-15T01:00:08;100119.94;;;11.20;100.00
163;BME280;3946;48.958;8.284;2023-05-15T01:02:55;100111.91;;;11.23;100.00
163;BME280;3946;48.958;8.284;2023-05-15T01:05:40;100118.03;;;11.35;100.00
163;BME280;3946;48.958;8.284;2023-05-15T01:08:32;100118.19;;;11.44;100.00
163;BME280;3946;48.958;8.284;2023-05-15T01:11:24;100118.34;;;11.54;100.00
163;BME280;3946;48.958;8.284;2023-05-15T01:14:12;100101.84;;;11.55;100.00
163;BME280;3946;48.958;8.284;2023-05-15T01:16:57;100110.19;;;11.47;100.00
163;BME280;3946;48.958;8.284;2023-05-15T01:19:43;100114.44;;;11.48;100.00
163;BME280;3946;48.958;8.284;2023-05-15T01:22:43;100110.72;;;11.40;100.00
163;BME280;3946;48.958;8.284;2023-05-15T01:26:15;100105.78;;;11.61;100.00
163;BME280;3946;48.958;8.284;2023-05-15T01:29:13;100109.72;;;11.66;100.00
163;BME280;3946;48.958;8.284;2023-05-15T01:32:05;100111.75;;;11.50;100.00
163;BME280;3946;48.958;8.284;2023-05-15T01:35:08;100119.22;;;11.42;100.00
163;BME280;3946;48.958;8.284;2023-05-15T01:38:15;100121.72;;;11.43;100.00
163;BME280;3946;48.958;8.284;2023-05-15T01:41:08;100114.34;;;11.37;100.00
163;BME280;3946;48.958;8.284;2023-05-15T01:43:56;100120.38;;;11.38;100.00
163;BME280;3946;48.958;8.284;2023-05-15T01:46:49;100119.06;;;11.32;100.00
163;BME280;3946;48.958;8.284;2023-05-15T01:49:35;100119.34;;;11.40;100.00
163;BME280;3946;48.958;8.284;2023-05-15T01:52:28;100122.84;;;11.52;100.00
163;BME280;3946;48.958;8.284;2023-05-15T01:55:14;100117.69;;;11.39;100.00
163;BME280;3946;48.958;8.284;2023-05-15T01:58:00;100115.91;;;11.52;100.00
163;BME280;3946;48.958;8.284;2023-05-15T02:00:47;100113.25;;;11.65;100.00
163;BME280;3946;48.958;8.284;2023-05-15T02:03:34;100117.09;;;11.60;100.00
163;BME280;3946;48.958;8.284;2023-05-15T02:06:21;100123.84;;;11.62;100.00
163;BME280;3946;48.958;8.284;2023-05-15T02:09:10;100117.53;;;11.53;100.00
163;BME280;3946;48.958;8.284;2023-05-15T02:11:57;100120.00;;;11.55;100.00
163;BME280;3946;48.958;8.284;2023-05-15T02:14:45;100112.16;;;11.44;100.00
163;BME280;3946;48.958;8.284;2023-05-15T02:17:32;100114.44;;;11.48;100.00
163;BME280;3946;48.958;8.284;2023-05-15T02:20:19;100114.97;;;11.41;100.00
163;BME280;3946;48.958;8.284;2023-05-15T02:23:04;100116.03;;;11.38;100.00
163;BME280;3946;48.958;8.284;2023-05-15T02:26:05;100109.53;;;11.33;100.00
163;BME280;3946;48.958;8.284;2023-05-15T02:28:58;100109.09;;;11.26;100.00
163;BME280;3946;48.958;8.284;2023-05-15T02:31:51;100106.25;;;11.18;100.00
163;BME280;3946;48.958;8.284;2023-05-15T02:34:44;100114.25;;;11.02;100.00
163;BME280;3946;48.958;8.284;2023-05-15T02:37:37;100108.03;;;10.92;100.00
163;BME280;3946;48.958;8.284;2023-05-15T02:40:23;100110.72;;;10.91;100.00
163;BME280;3946;48.958;8.284;2023-05-15T02:43:10;100111.38;;;10.81;100.00
163;BME280;3946;48.958;8.284;2023-05-15T02:45:58;100109.19;;;10.88;100.00
163;BME280;3946;48.958;8.284;2023-05-15T02:48:44;100104.63;;;10.79;100.00
163;BME280;3946;48.958;8.284;2023-05-15T02:51:30;100111.47;;;10.80;100.00
163;BME280;3946;48.958;8.284;2023-05-15T02:54:17;100099.84;;;10.73;100.00
163;BME280;3946;48.958;8.284;2023-05-15T02:57:03;100102.44;;;10.73;100.00
163;BME280;3946;48.958;8.284;2023-05-15T02:59:48;100117.06;;;10.74;100.00
163;BME280;3946;48.958;8.284;2023-05-15T03:02:34;100114.59;;;10.60;100.00
163;BME280;3946;48.958;8.284;2023-05-15T03:05:20;100120.19;;;10.54;100.00
163;BME280;3946;48.958;8.284;2023-05-15T03:08:05;100119.38;;;10.53;100.00
163;BME280;3946;48.958;8.284;2023-05-15T03:10:52;100131.59;;;10.51;100.00
163;BME280;3946;48.958;8.284;2023-05-15T03:13:37;100119.13;;;10.43;100.00
163;BME280;3946;48.958;8.284;2023-05-15T03:16:22;100117.81;;;10.38;100.00
163;BME280;3946;48.958;8.284;2023-05-15T03:19:07;100125.16;;;10.44;100.00
163;BME280;3946;48.958;8.284;2023-05-15T03:21:53;100129.50;;;10.43;100.00
163;BME280;3946;48.958;8.284;2023-05-15T03:24:38;100120.59;;;10.47;100.00
163;BME280;3946;48.958;8.284;2023-05-15T03:27:25;100123.59;;;10.41;100.00
163;BME280;3946;48.958;8.284;2023-05-15T03:30:10;100124.84;;;10.36;100.00
163;BME280;3946;48.958;8.284;2023-05-15T03:32:55;100125.03;;;10.33;100.00
163;BME280;3946;48.958;8.284;2023-05-15T03:35:41;100124.84;;;10.36;100.00
163;BME280;3946;48.958;8.284;2023-05-15T03:38:27;100132.41;;;10.39;100.00
163;BME280;3946;48.958;8.284;2023-05-15T03:41:12;100128.88;;;10.40;100.00
163;BME280;3946;48.958;8.284;2023-05-15T03:43:59;100136.34;;;10.32;100.00
163;BME280;3946;48.958;8.284;2023-05-15T03:46:45;100136.97;;;10.35;100.00
163;BME280;3946;48.958;8.284;2023-05-15T03:49:30;100134.47;;;10.34;100.00
163;BME280;3946;48.958;8.284;2023-05-15T03:52:15;100137.66;;;10.25;100.00
163;BME280;3946;48.958;8.284;2023-05-15T03:55:02;100142.25;;;10.34;100.00
163;BME280;3946;48.958;8.284;2023-05-15T03:57:48;100138.81;;;10.21;100.00
163;BME280;3946;48.958;8.284;2023-05-15T04:00:35;100137.16;;;10.20;100.00
163;BME280;3946;48.958;8.284;2023-05-15T04:03:20;100135.66;;;10.15;100.00
163;BME280;3946;48.958;8.284;2023-05-15T04:06:06;100143.16;;;10.20;100.00
163;BME280;3946;48.958;8.284;2023-05-15T04:08:51;100150.09;;;10.32;100.00
163;BME280;3946;48.958;8.284;2023-05-15T04:11:36;100138.81;;;10.46;100.00
163;BME280;3946;48.958;8.284;2023-05-15T04:14:22;100146.41;;;10.36;100.00
163;BME280;3946;48.958;8.284;2023-05-15T04:17:11;100146.06;;;10.28;100.00
163;BME280;3946;48.958;8.284;2023-05-15T04:19:58;100146.50;;;10.35;100.00
163;BME280;3946;48.958;8.284;2023-05-15T04:22:44;100141.81;;;10.40;100.00
163;BME280;3946;48.958;8.284;2023-05-15T04:25:29;100151.16;;;10.42;100.00
163;BME280;3946;48.958;8.284;2023-05-15T04:28:15;100135.72;;;10.41;100.00
163;BME280;3946;48.958;8.284;2023-05-15T04:31:00;100130.13;;;10.34;100.00
163;BME280;3946;48.958;8.284;2023-05-15T04:33:47;100151.16;;;10.42;100.00
163;BME280;3946;48.958;8.284;2023-05-15T04:36:32;100159.34;;;10.49;100.00
163;BME280;3946;48.958;8.284;2023-05-15T04:39:17;100150.94;;;10.45;100.00
163;BME280;3946;48.958;8.284;2023-05-15T04:42:03;100153.16;;;10.51;100.00
163;BME280;3946;48.958;8.284;2023-05-15T04:44:49;100154.06;;;10.50;100.00
163;BME280;3946;48.958;8.284;2023-05-15T04:47:34;100144.44;;;10.52;100.00
163;BME280;3946;48.958;8.284;2023-05-15T04:50:21;100146.59;;;10.59;100.00
163;BME280;3946;48.958;8.284;2023-05-15T04:53:06;100140.09;;;10.66;100.00
163;BME280;3946;48.958;8.284;2023-05-15T04:55:52;100151.38;;;10.77;100.00
163;BME280;3946;48.958;8.284;2023-05-15T04:58:37;100153.38;;;10.86;100.00
163;BME280;3946;48.958;8.284;2023-05-15T05:01:22;100147.63;;;11.07;100.00
163;BME280;3946;48.958;8.284;2023-05-15T05:04:07;100138.41;;;11.15;100.00
163;BME280;3946;48.958;8.284;2023-05-15T05:06:54;100142.22;;;11.59;100.00
163;BME280;3946;48.958;8.284;2023-05-15T05:09:39;100124.03;;;12.31;100.00
163;BME280;3946;48.958;8.284;2023-05-15T05:12:25;100112.38;;;13.37;100.00
163;BME280;3946;48.958;8.284;2023-05-15T05:15:10;100101.69;;;14.15;100.00
163;BME280;3946;48.958;8.284;2023-05-15T05:17:55;100094.03;;;15.25;96.21
163;BME280;3946;48.958;8.284;2023-05-15T05:20:40;100100.53;;;15.10;92.96
163;BME280;3946;48.958;8.284;2023-05-15T05:23:27;100085.72;;;15.89;88.98
163;BME280;3946;48.958;8.284;2023-05-15T05:26:12;100098.25;;;15.26;90.44
163;BME280;3946;48.958;8.284;2023-05-15T05:28:57;100098.53;;;15.23;89.83
163;BME280;3946;48.958;8.284;2023-05-15T05:31:42;100100.59;;;15.89;89.46
163;BME280;3946;48.958;8.284;2023-05-15T05:34:27;100082.72;;;16.69;84.83
163;BME280;3946;48.958;8.284;2023-05-15T05:37:12;100075.97;;;16.94;83.33
163;BME280;3946;48.958;8.284;2023-05-15T05:39:58;100070.00;;;17.29;79.89
163;BME280;3946;48.958;8.284;2023-05-15T05:42:43;100071.38;;;17.33;79.37
163;BME280;3946;48.958;8.284;2023-05-15T05:45:28;100088.50;;;17.45;79.68
163;BME280;3946;48.958;8.284;2023-05-15T05:48:13;100066.66;;;17.90;78.25
163;BME280;3946;48.958;8.284;2023-05-15T05:50:58;100078.66;;;17.75;78.23
163;BME280;3946;48.958;8.284;2023-05-15T05:53:43;100088.13;;;17.58;78.40
163;BME280;3946;48.958;8.284;2023-05-15T05:56:29;100098.88;;;17.20;80.52
163;BME280;3946;48.958;8.284;2023-05-15T05:59:15;100110.03;;;16.28;83.33
163;BME280;3946;48.958;8.284;2023-05-15T06:02:00;100103.19;;;15.69;85.76
163;BME280;3946;48.958;8.284;2023-05-15T06:04:46;100124.38;;;14.86;90.68
163;BME280;3946;48.958;8.284;2023-05-15T06:07:31;100120.66;;;14.58;93.20
163;BME280;3946;48.958;8.284;2023-05-15T06:10:16;100117.44;;;14.34;95.76
163;BME280;3946;48.958;8.284;2023-05-15T06:13:02;100117.81;;;14.41;96.56
163;BME280;3946;48.958;8.284;2023-05-15T06:15:47;100120.50;;;14.18;98.86
163;BME280;3946;48.958;8.284;2023-05-15T06:18:32;100123.56;;;14.23;98.77
163;BME280;3946;48.958;8.284;2023-05-15T06:21:17;100129.38;;;14.16;99.91
163;BME280;3946;48.958;8.284;2023-05-15T06:24:02;100115.78;;;14.33;100.00
163;BME280;3946;48.958;8.284;2023-05-15T06:26:47;100113.19;;;14.33;98.29
163;BME280;3946;48.958;8.284;2023-05-15T06:29:33;100117.97;;;14.07;99.72
163;BME280;3946;48.958;8.284;2023-05-15T06:32:19;100123.28;;;14.06;100.00
163;BME280;3946;48.958;8.284;2023-05-15T06:35:04;100124.19;;;14.16;100.00
163;BME280;3946;48.958;8.284;2023-05-15T06:37:49;100126.00;;;14.57;99.18
163;BME280;3946;48.958;8.284;2023-05-15T06:40:35;100118.28;;;15.16;96.48
163;BME280;3946;48.958;8.284;2023-05-15T06:43:20;100119.59;;;14.91;96.52
163;BME280;3946;48.958;8.284;2023-05-15T06:46:07;100112.19;;;15.46;93.39
163;BME280;3946;48.958;8.284;2023-05-15T06:48:52;100109.09;;;15.71;90.32
163;BME280;3946;48.958;8.284;2023-05-15T06:51:36;100105.78;;;15.69;89.25
163;BME280;3946;48.958;8.284;2023-05-15T06:54:21;100123.50;;;15.16;92.36
163;BME280;3946;48.958;8.284;2023-05-15T06:57:06;100116.31;;;15.49;92.57
163;BME280;3946;48.958;8.284;2023-05-15T06:59:51;100113.69;;;15.49;92.46
163;BME280;3946;48.958;8.284;2023-05-15T07:02:38;100105.38;;;16.13;91.11
163;BME280;3946;48.958;8.284;2023-05-15T07:05:22;100101.78;;;16.33;88.20
163;BME280;3946;48.958;8.284;2023-05-15T07:08:07;100106.34;;;16.21;88.02
163;BME280;3946;48.958;8.284;2023-05-15T07:10:52;100116.09;;;16.09;88.80
163;BME280;3946;48.958;8.284;2023-05-15T07:13:37;100109.38;;;15.97;89.22
163;BME280;3946;48.958;8.284;2023-05-15T07:16:22;100107.59;;;15.98;89.52
163;BME280;3946;48.958;8.284;2023-05-15T07:19:09;100111.88;;;15.89;89.36
163;BME280;3946;48.958;8.284;2023-05-15T07:21:54;100116.38;;;15.68;88.74
163;BME280;3946;48.958;8.284;2023-05-15T07:24:39;100109.25;;;15.89;88.00
163;BME280;3946;48.958;8.284;2023-05-15T07:27:24;100107.03;;;15.94;86.38
163;BME280;3946;48.958;8.284;2023-05-15T07:30:10;100107.88;;;16.04;86.71
163;BME280;3946;48.958;8.284;2023-05-15T07:32:55;100110.59;;;15.93;87.82
163;BME280;3946;48.958;8.284;2023-05-15T07:35:41;100114.69;;;16.25;86.65
163;BME280;3946;48.958;8.284;2023-05-15T07:38:26;100109.47;;;16.34;86.55
163;BME280;3946;48.958;8.284;2023-05-15T07:41:11;100109.66;;;16.79;85.96
163;BME280;3946;48.958;8.284;2023-05-15T07:43:56;100107.13;;;17.42;84.84
163;BME280;3946;48.958;8.284;2023-05-15T07:46:41;100093.22;;;17.69;82.43
163;BME280;3946;48.958;8.284;2023-05-15T07:49:26;100070.59;;;17.68;78.86
163;BME280;3946;48.958;8.284;2023-05-15T07:52:12;100101.59;;;17.45;81.80
163;BME280;3946;48.958;8.284;2023-05-15T07:54:57;100077.31;;;17.71;79.37
163;BME280;3946;48.958;8.284;2023-05-15T07:57:42;100070.75;;;17.85;78.44
163;BME280;3946;48.958;8.284;2023-05-15T08:00:28;100083.47;;;17.79;80.07
163;BME280;3946;48.958;8.284;2023-05-15T08:03:13;100060.69;;;17.80;78.91
163;BME280;3946;48.958;8.284;2023-05-15T08:05:58;100071.72;;;17.66;79.32
163;BME280;3946;48.958;8.284;2023-05-15T08:08:45;100038.59;;;18.00;77.70
163;BME280;3946;48.958;8.284;2023-05-15T08:11:30;100052.94;;;18.14;77.83
163;BME280;3946;48.958;8.284;2023-05-15T08:14:15;100049.34;;;18.67;76.86
163;BME280;3946;48.958;8.284;2023-05-15T08:16:59;100034.97;;;18.27;75.36
163;BME280;3946;48.958;8.284;2023-05-15T08:19:44;100020.69;;;18.90;73.83
163;BME280;3946;48.958;8.284;2023-05-15T08:22:30;100021.31;;;18.75;73.57
163;BME280;3946;48.958;8.284;2023-05-15T08:25:16;100021.88;;;18.27;73.59
163;BME280;3946;48.958;8.284;2023-05-15T08:28:01;99999.22;;;19.02;71.41
163;BME280;3946;48.958;8.284;2023-05-15T08:30:46;100019.88;;;18.89;72.27
163;BME280;3946;48.958;8.284;2023-05-15T08:33:32;99993.53;;;19.23;70.19
163;BME280;3946;48.958;8.284;2023-05-15T08:36:17;100029.91;;;19.02;72.58
163;BME280;3946;48.958;8.284;2023-05-15T08:39:02;99982.91;;;19.57;70.10
163;BME280;3946;48.958;8.284;2023-05-15T08:42:02;100017.03;;;19.41;71.41
163;BME280;3946;48.958;8.284;2023-05-15T08:44:49;100016.50;;;19.13;70.89
163;BME280;3946;48.958;8.284;2023-05-15T08:47:37;100040.44;;;19.02;72.70
163;BME280;3946;48.958;8.284;2023-05-15T08:50:23;99999.41;;;19.09;69.88
163;BME280;3946;48.958;8.284;2023-05-15T08:53:09;100036.66;;;19.04;72.58
163;BME280;3946;48.958;8.284;2023-05-15T08:55:54;99980.56;;;19.21;69.41
163;BME280;3946;48.958;8.284;2023-05-15T08:58:41;100000.13;;;19.35;69.78
163;BME280;3946;48.958;8.284;2023-05-15T09:01:27;100024.78;;;19.50;71.68
163;BME280;3946;48.958;8.284;2023-05-15T09:04:12;99985.03;;;19.53;69.28
163;BME280;3946;48.958;8.284;2023-05-15T09:06:58;100008.03;;;19.51;70.75
163;BME280;3946;48.958;8.284;2023-05-15T09:09:44;99957.75;;;19.95;67.46
163;BME280;3946;48.958;8.284;2023-05-15T09:12:30;99950.81;;;20.10;66.21
163;BME280;3946;48.958;8.284;2023-05-15T09:15:18;99954.81;;;19.66;66.97
163;BME280;3946;48.958;8.284;2023-05-15T09:18:04;100024.97;;;19.81;70.59
163;BME280;3946;48.958;8.284;2023-05-15T09:20:50;99990.91;;;20.12;68.94
163;BME280;3946;48.958;8.284;2023-05-15T09:23:35;99951.75;;;20.65;66.49
163;BME280;3946;48.958;8.284;2023-05-15T09:26:20;99924.84;;;20.46;65.66
163;BME280;3946;48.958;8.284;2023-05-15T09:29:05;99899.56;;;20.45;63.58
163;BME280;3946;48.958;8.284;2023-05-15T09:31:51;99906.16;;;20.64;64.01
163;BME280;3946;48.958;8.284;2023-05-15T09:34:36;99881.78;;;20.70;62.79
163;BME280;3946;48.958;8.284;2023-05-15T09:37:26;99910.97;;;21.37;64.10
163;BME280;3946;48.958;8.284;2023-05-15T09:40:12;99913.75;;;21.58;64.22
163;BME280;3946;48.958;8.284;2023-05-15T09:42:58;99845.44;;;21.63;60.81
163;BME280;3946;48.958;8.284;2023-05-15T09:45:45;99817.16;;;21.87;59.54
163;BME280;3946;48.958;8.284;2023-05-15T09:48:32;99824.28;;;21.42;59.26
163;BME280;3946;48.958;8.284;2023-05-15T09:51:18;99856.56;;;20.99;60.82
163;BME280;3946;48.958;8.284;2023-05-15T09:54:03;99842.16;;;21.32;60.33
163;BME280;3946;48.958;8.284;2023-05-15T09:56:48;99866.38;;;21.27;61.27
163;BME280;3946;48.958;8.284;2023-05-15T09:59:33;99856.19;;;21.91;61.15
163;BME280;3946;48.958;8.284;2023-05-15T10:02:22;99841.53;;;21.89;60.25
163;BME280;3946;48.958;8.284;2023-05-15T10:05:08;99851.88;;;21.32;60.62
163;BME280;3946;48.958;8.284;2023-05-15T10:07:55;99847.06;;;21.35;60.69
163;BME280;3946;48.958;8.284;2023-05-15T10:10:41;99874.56;;;21.70;61.68
163;BME280;3946;48.958;8.284;2023-05-15T10:13:26;99778.88;;;22.27;57.70
163;BME280;3946;48.958;8.284;2023-05-15T10:16:15;99813.41;;;21.96;58.54
163;BME280;3946;48.958;8.284;2023-05-15T10:19:05;99773.31;;;22.01;57.00
163;BME280;3946;48.958;8.284;2023-05-15T10:21:51;99766.91;;;22.88;56.41
163;BME280;3946;48.958;8.284;2023-05-15T10:24:37;99762.56;;;22.81;56.02
163;BME280;3946;48.958;8.284;2023-05-15T10:27:25;99749.22;;;22.89;55.22
163;BME280;3946;48.958;8.284;2023-05-15T10:30:10;99794.78;;;21.83;57.61
163;BME280;3946;48.958;8.284;2023-05-15T10:32:56;99833.81;;;21.58;60.18
163;BME280;3946;48.958;8.284;2023-05-15T10:35:41;99778.19;;;21.38;57.68
163;BME280;3946;48.958;8.284;2023-05-15T10:38:28;99808.69;;;21.33;58.22
163;BME280;3946;48.958;8.284;2023-05-15T10:41:14;99785.91;;;21.02;57.23
163;BME280;3946;48.958;8.284;2023-05-15T10:44:00;99783.59;;;20.84;57.09
163;BME280;3946;48.958;8.284;2023-05-15T10:46:45;99828.31;;;20.08;58.89
163;BME280;3946;48.958;8.284;2023-05-15T10:49:31;99844.94;;;19.20;59.28
163;BME280;3946;48.958;8.284;2023-05-15T10:52:16;99868.56;;;18.72;60.80
163;BME280;3946;48.958;8.284;2023-05-15T10:55:02;99893.59;;;18.08;62.09
163;BME280;3946;48.958;8.284;2023-05-15T10:57:49;99895.75;;;17.87;62.73
163;BME280;3946;48.958;8.284;2023-05-15T11:00:40;99931.59;;;17.60;64.68
163;BME280;3946;48.958;8.284;2023-05-15T11:03:35;99951.09;;;17.22;66.16
163;BME280;3946;48.958;8.284;2023-05-15T11:06:26;99956.56;;;17.29;66.78
163;BME280;3946;48.958;8.284;2023-05-15T11:12:18;99987.25;;;17.19;70.94
163;BME280;3946;48.958;8.284;2023-05-15T11:15:19;99969.72;;;16.84;70.80
163;BME280;3946;48.958;8.284;2023-05-15T11:18:04;99963.88;;;17.07;70.50
163;BME280;3946;48.958;8.284;2023-05-15T11:21:05;99954.09;;;17.27;70.09
163;BME280;3946;48.958;8.284;2023-05-15T11:23:56;99955.66;;;17.38;70.60
163;BME280;3946;48.958;8.284;2023-05-15T11:26:50;99980.53;;;17.34;72.31
163;BME280;3946;48.958;8.284;2023-05-15T11:29:37;99952.34;;;17.54;70.90
163;BME280;3946;48.958;8.284;2023-05-15T11:32:43;99934.34;;;17.51;70.18
163;BME280;3946;48.958;8.284;2023-05-15T11:35:29;99929.72;;;17.70;69.63
163;BME280;3946;48.958;8.284;2023-05-15T11:38:16;99945.13;;;17.65;70.62
163;BME280;3946;48.958;8.284;2023-05-15T11:41:02;99941.72;;;17.73;70.84
163;BME280;3946;48.958;8.284;2023-05-15T11:44:00;99945.00;;;17.75;71.50
163;BME280;3946;48.958;8.284;2023-05-15T11:46:46;99926.19;;;18.05;69.54
163;BME280;3946;48.958;8.284;2023-05-15T11:49:32;99925.41;;;18.55;69.15
163;BME280;3946;48.958;8.284;2023-05-15T11:52:17;99925.25;;;18.57;69.03
163;BME280;3946;48.958;8.284;2023-05-15T11:55:03;99896.47;;;18.89;67.25
163;BME280;3946;48.958;8.284;2023-05-15T11:57:49;99894.69;;;19.38;66.96
163;BME280;3946;48.958;8.284;2023-05-15T12:00:34;99883.16;;;19.72;66.01
163;BME280;3946;48.958;8.284;2023-05-15T12:03:21;99837.28;;;20.21;64.02
163;BME280;3946;48.958;8.284;2023-05-15T12:06:07;99844.72;;;19.71;64.12
163;BME280;3946;48.958;8.284;2023-05-15T12:08:54;99866.13;;;20.07;64.85
163;BME280;3946;48.958;8.284;2023-05-15T12:11:40;99824.72;;;20.63;62.70
163;BME280;3946;48.958;8.284;2023-05-15T12:14:25;99805.16;;;20.42;60.93
163;BME280;3946;48.958;8.284;2023-05-15T12:17:10;99731.91;;;20.46;57.61
163;BME280;3946;48.958;8.284;2023-05-15T12:19:57;99758.69;;;20.26;58.28
163;BME280;3946;48.958;8.284;2023-05-15T12:22:43;99739.91;;;20.52;56.95
163;BME280;3946;48.958;8.284;2023-05-15T12:25:29;99697.28;;;20.57;55.17
163;BME280;3946;48.958;8.284;2023-05-15T12:28:14;99770.34;;;20.55;58.32
163;BME280;3946;48.958;8.284;2023-05-15T12:31:00;99794.44;;;20.67;59.64
163;BME280;3946;48.958;8.284;2023-05-15T12:33:46;99831.38;;;20.96;61.18
163;BME280;3946;48.958;8.284;2023-05-15T12:36:33;99830.22;;;21.21;61.29
163;BME280;3946;48.958;8.284;2023-05-15T12:39:18;99724.53;;;21.46;56.64
163;BME280;3946;48.958;8.284;2023-05-15T12:42:03;99784.72;;;21.57;58.81
163;BME280;3946;48.958;8.284;2023-05-15T12:44:49;99805.38;;;21.16;60.30
163;BME280;3946;48.958;8.284;2023-05-15T12:47:34;99787.66;;;20.72;59.96
163;BME280;3946;48.958;8.284;2023-05-15T12:50:20;99848.75;;;20.90;62.04
163;BME280;3946;48.958;8.284;2023-05-15T12:53:07;99832.44;;;21.10;61.72
163;BME280;3946;48.958;8.284;2023-05-15T12:55:52;99821.69;;;21.19;61.24
163;BME280;3946;48.958;8.284;2023-05-15T12:58:37;99862.81;;;20.98;63.57
163;BME280;3946;48.958;8.284;2023-05-15T13:01:22;99867.03;;;21.29;63.66
163;BME280;3946;48.958;8.284;2023-05-15T13:04:08;99866.63;;;21.55;64.02
163;BME280;3946;48.958;8.284;2023-05-15T13:06:53;99883.09;;;21.20;64.40
163;BME280;3946;48.958;8.284;2023-05-15T13:09:39;99834.41;;;20.70;62.24
163;BME280;3946;48.958;8.284;2023-05-15T13:12:24;99857.50;;;21.28;63.00
163;BME280;3946;48.958;8.284;2023-05-15T13:15:20;99753.16;;;21.63;58.26
163;BME280;3946;48.958;8.284;2023-05-15T13:18:06;99712.34;;;21.45;56.64
163;BME280;3946;48.958;8.284;2023-05-15T13:20:51;99754.44;;;21.68;58.57
163;BME280;3946;48.958;8.284;2023-05-15T13:23:36;99765.31;;;21.79;59.06
163;BME280;3946;48.958;8.284;2023-05-15T13:26:22;99737.91;;;22.31;57.13
163;BME280;3946;48.958;8.284;2023-05-15T13:29:07;99729.81;;;22.32;56.97
163;BME280;3946;48.958;8.284;2023-05-15T13:31:52;99792.38;;;22.53;58.86
163;BME280;3946;48.958;8.284;2023-05-15T13:34:37;99744.94;;;22.03;57.21
163;BME280;3946;48.958;8.284;2023-05-15T13:37:22;99801.16;;;21.29;59.64
163;BME280;3946;48.958;8.284;2023-05-15T13:40:07;99796.53;;;21.90;59.68
163;BME280;3946;48.958;8.284;2023-05-15T13:42:54;99782.75;;;22.10;58.91
163;BME280;3946;48.958;8.284;2023-05-15T13:45:40;99799.50;;;22.17;59.38
163;BME280;3946;48.958;8.284;2023-05-15T13:48:24;99786.91;;;21.39;58.81
163;BME280;3946;48.958;8.284;2023-05-15T13:51:09;99819.16;;;21.03;59.80
163;BME280;3946;48.958;8.284;2023-05-15T13:53:54;99784.91;;;20.66;58.43
163;BME280;3946;48.958;8.284;2023-05-15T13:56:39;99837.72;;;20.33;60.15
163;BME280;3946;48.958;8.284;2023-05-15T13:59:26;99814.19;;;20.09;59.38
163;BME280;3946;48.958;8.284;2023-05-15T14:02:11;99838.44;;;19.88;60.08
163;BME280;3946;48.958;8.284;2023-05-15T14:04:56;99851.31;;;19.67;60.80
163;BME280;3946;48.958;8.284;2023-05-15T14:07:41;99868.59;;;19.45;61.67
163;BME280;3946;48.958;8.284;2023-05-15T14:10:26;99908.00;;;19.20;63.62
163;BME280;3946;48.958;8.284;2023-05-15T14:13:11;99961.66;;;19.10;66.42
163;BME280;3946;48.958;8.284;2023-05-15T14:15:58;99984.00;;;19.14;69.54
163;BME280;3946;48.958;8.284;2023-05-15T14:18:42;99962.59;;;18.76;73.31
163;BME280;3946;48.958;8.284;2023-05-15T14:21:28;99958.03;;;18.52;76.19
163;BME280;3946;48.958;8.284;2023-05-15T14:24:14;99949.09;;;18.29;76.69
163;BME280;3946;48.958;8.284;2023-05-15T14:26:59;99962.06;;;18.65;77.49
163;BME280;3946;48.958;8.284;2023-05-15T14:29:44;99967.00;;;18.34;79.19
163;BME280;3946;48.958;8.284;2023-05-15T14:32:32;99966.81;;;18.01;78.34
163;BME280;3946;48.958;8.284;2023-05-15T14:35:17;99962.84;;;17.97;79.49
163;BME280;3946;48.958;8.284;2023-05-15T14:38:02;99965.25;;;17.91;80.53
163;BME280;3946;48.958;8.284;2023-05-15T14:40:47;99972.78;;;17.86;79.94
163;BME280;3946;48.958;8.284;2023-05-15T14:43:32;99958.09;;;17.75;77.41
163;BME280;3946;48.958;8.284;2023-05-15T14:46:17;99953.91;;;17.82;77.40
163;BME280;3946;48.958;8.284;2023-05-15T14:49:03;99955.34;;;17.76;77.16
163;BME280;3946;48.958;8.284;2023-05-15T14:51:48;99954.03;;;18.06;76.66
163;BME280;3946;48.958;8.284;2023-05-15T14:54:33;99941.50;;;18.18;74.46
163;BME280;3946;48.958;8.284;2023-05-15T14:57:19;99946.53;;;18.11;74.72
163;BME280;3946;48.958;8.284;2023-05-15T15:00:04;99947.59;;;18.27;75.64
163;BME280;3946;48.958;8.284;2023-05-15T15:02:50;99939.94;;;17.99;74.33
163;BME280;3946;48.958;8.284;2023-05-15T15:05:37;99950.00;;;18.12;75.24
163;BME280;3946;48.958;8.284;2023-05-15T15:08:22;99953.28;;;18.14;76.30
163;BME280;3946;48.958;8.284;2023-05-15T15:11:07;99935.16;;;18.37;75.21